createdAt,value
2019-01-11T00:01:56.612Z,0.00
2019-01-11T00:04:26.734Z,0.00
2019-01-11T00:06:57.790Z,0.00
2019-01-11T00:09:27.502Z,0.00
2019-01-11T00:11:57.305Z,0.00
2019-01-11T00:14:27.160Z,0.00
2019-01-11T00:16:56.832Z,0.00
2019-01-11T00:19:26.671Z,0.00
2019-01-11T00:21:56.384Z,0.00
2019-01-11T00:24:26.386Z,0.00
2019-01-11T00:26:56.183Z,0.00
2019-01-11T00:29:25.942Z,0.00
2019-01-11T00:31:55.706Z,0.00
2019-01-11T00:34:25.421Z,0.00
2019-01-11T00:36:55.281Z,0.00
2019-01-11T00:39:25.039Z,0.00
2019-01-11T00:41:54.878Z,0.00
2019-01-11T00:44:24.836Z,0.00
2019-01-11T00:46:54.702Z,0.00
2019-01-11T00:49:24.718Z,0.00
2019-01-11T00:51:54.579Z,0.00
2019-01-11T00:54:24.561Z,0.00
2019-01-11T00:56:54.468Z,0.00
2019-01-11T00:59:24.327Z,0.00
2019-01-11T01:01:54.321Z,0.00
2019-01-11T01:04:24.138Z,0.00
2019-01-11T01:06:55.409Z,0.00
2019-01-11T01:09:25.435Z,0.00
2019-01-11T01:11:55.323Z,0.00
2019-01-11T01:14:25.215Z,0.00
2019-01-11T01:16:55.308Z,0.00
2019-01-11T01:19:25.378Z,0.00
2019-01-11T01:21:55.290Z,0.00
2019-01-11T01:24:25.178Z,0.00
2019-01-11T01:26:55.152Z,0.00
2019-01-11T01:29:25.004Z,0.00
2019-01-11T01:31:55.022Z,0.00
2019-01-11T01:34:24.725Z,0.00
2019-01-11T01:36:54.426Z,0.00
2019-01-11T01:39:24.388Z,0.00
2019-01-11T01:41:54.250Z,0.00
2019-01-11T01:44:24.121Z,0.00
2019-01-11T01:46:53.878Z,0.00
2019-01-11T01:49:26.692Z,0.00
2019-01-11T01:51:55.309Z,0.00
2019-01-11T01:54:25.158Z,0.00
2019-01-11T01:56:55.027Z,0.00
2019-01-11T01:59:25.126Z,0.00
2019-01-11T02:01:55.844Z,0.00
2019-01-11T02:04:25.649Z,0.00
2019-01-11T02:06:55.599Z,0.00
2019-01-11T02:09:25.471Z,0.00
2019-01-11T02:11:55.395Z,0.00
2019-01-11T02:14:25.367Z,0.00
2019-01-11T02:16:55.238Z,0.00
2019-01-11T02:19:25.139Z,0.00
2019-01-11T02:21:54.858Z,0.00
2019-01-11T02:24:24.684Z,0.00
2019-01-11T02:26:54.401Z,0.00
2019-01-11T02:29:24.276Z,0.00
2019-01-11T02:31:54.284Z,0.00
2019-01-11T02:34:24.031Z,0.00
2019-01-11T02:36:54.008Z,0.00
2019-01-11T02:39:23.920Z,0.00
2019-01-11T02:41:55.196Z,0.00
2019-01-11T02:44:25.058Z,0.00
2019-01-11T02:46:54.814Z,0.00
2019-01-11T02:49:24.766Z,0.00
2019-01-11T02:51:54.436Z,0.00
2019-01-11T02:54:24.349Z,0.00
2019-01-11T02:56:54.319Z,0.00
2019-01-11T02:59:24.128Z,0.00
2019-01-11T03:01:53.785Z,0.00
2019-01-11T03:04:23.939Z,0.00
2019-01-11T03:06:53.660Z,0.00
2019-01-11T03:09:23.860Z,0.00
2019-01-11T03:11:53.829Z,0.00
2019-01-11T03:14:23.607Z,0.00
2019-01-11T03:16:53.511Z,0.00
2019-01-11T03:19:23.448Z,0.00
2019-01-11T03:21:53.220Z,0.00
2019-01-11T03:24:22.956Z,0.00
2019-01-11T03:26:53.198Z,0.00
2019-01-11T03:29:22.884Z,0.00
2019-01-11T03:31:52.691Z,0.00
2019-01-11T03:34:22.624Z,0.00
2019-01-11T03:36:52.410Z,0.00
2019-01-11T03:39:22.348Z,0.00
2019-01-11T03:42:19.887Z,0.00
2019-01-11T03:44:49.636Z,0.00
2019-01-11T03:47:19.498Z,3.06
2019-01-11T03:49:54.823Z,5.13
2019-01-11T03:52:21.177Z,6.73
2019-01-11T03:54:51.011Z,8.65
2019-01-11T03:57:20.863Z,10.44
2019-01-11T03:59:50.676Z,7.09
2019-01-11T04:02:20.846Z,0.69
2019-01-11T04:04:50.710Z,0.00
2019-01-11T04:07:20.542Z,0.00
2019-01-11T04:09:50.305Z,0.00
2019-01-11T04:12:19.956Z,0.00
2019-01-11T04:14:49.833Z,0.00
2019-01-11T04:17:19.595Z,0.00
2019-01-11T04:19:49.451Z,0.00
2019-01-11T04:22:26.949Z,0.00
2019-01-11T04:25:16.050Z,18.84
2019-01-11T04:27:45.997Z,29.96
2019-01-11T04:30:18.807Z,32.89
2019-01-11T04:32:48.575Z,37.66
2019-01-11T04:35:20.235Z,38.80
2019-01-11T04:37:50.383Z,41.26
2019-01-11T04:40:20.677Z,41.35
2019-01-11T04:42:50.618Z,42.45
2019-01-11T04:45:20.475Z,41.53
2019-01-11T04:47:50.259Z,39.32
2019-01-11T04:50:20.479Z,40.61
2019-01-11T04:52:50.560Z,41.15
2019-01-11T04:55:20.696Z,39.28
2019-01-11T04:57:50.411Z,40.17
2019-01-11T05:00:22.265Z,40.52
2019-01-11T05:02:52.428Z,42.66
2019-01-11T05:05:22.377Z,44.79
2019-01-11T05:07:52.205Z,50.67
2019-01-11T05:10:22.090Z,52.85
2019-01-11T05:12:52.089Z,52.46
2019-01-11T05:15:21.944Z,55.89
2019-01-11T05:17:51.892Z,57.34
2019-01-11T05:20:21.697Z,58.55
2019-01-11T05:22:51.708Z,59.28
2019-01-11T05:25:21.611Z,61.19
2019-01-11T05:27:51.580Z,60.25
2019-01-11T05:30:21.768Z,60.22
2019-01-11T05:32:53.782Z,60.59
2019-01-11T05:35:23.969Z,58.08
2019-01-11T05:37:53.771Z,54.82
2019-01-11T05:40:23.695Z,53.51
2019-01-11T05:42:53.606Z,54.54
2019-01-11T05:45:24.005Z,58.29
2019-01-11T05:47:54.139Z,59.67
2019-01-11T05:50:24.554Z,62.27
2019-01-11T05:52:54.392Z,61.78
2019-01-11T05:55:52.296Z,57.42
2019-01-11T05:58:38.808Z,58.11
2019-01-11T06:01:08.780Z,57.13
2019-01-11T06:03:38.748Z,52.08
2019-01-11T06:06:09.770Z,45.78
2019-01-11T06:08:39.993Z,44.14
2019-01-11T06:11:10.207Z,43.61
2019-01-11T06:13:40.012Z,45.39
2019-01-11T06:16:11.476Z,47.63
2019-01-11T06:18:41.403Z,51.97
2019-01-11T06:21:11.179Z,55.42
2019-01-11T06:23:41.237Z,56.30
2019-01-11T06:26:11.066Z,57.33
2019-01-11T06:28:40.933Z,55.75
2019-01-11T06:31:10.871Z,55.05
2019-01-11T06:33:41.640Z,52.59
2019-01-11T06:36:11.403Z,52.03
2019-01-11T06:38:41.199Z,52.81
2019-01-11T06:41:11.134Z,50.77
2019-01-11T06:43:41.136Z,50.23
2019-01-11T06:46:11.042Z,49.34
2019-01-11T06:48:44.099Z,47.78
2019-01-11T06:51:14.100Z,47.47
2019-01-11T06:53:44.063Z,47.54
2019-01-11T06:56:14.045Z,47.77
2019-01-11T06:58:43.819Z,45.99
2019-01-11T07:01:13.637Z,46.06
2019-01-11T07:03:43.696Z,45.18
2019-01-11T07:06:13.686Z,43.34
2019-01-11T07:08:43.788Z,44.20
2019-01-11T07:11:14.874Z,42.69
2019-01-11T07:13:44.645Z,39.06
2019-01-11T07:16:14.314Z,36.37
2019-01-11T07:18:44.309Z,38.49
2019-01-11T07:21:14.093Z,40.05
2019-01-11T07:23:43.948Z,40.17
2019-01-11T07:26:13.845Z,41.13
2019-01-11T07:28:43.742Z,41.84
2019-01-11T07:31:20.880Z,43.44
2019-01-11T07:33:50.552Z,44.18
2019-01-11T07:36:35.252Z,44.67
2019-01-11T07:39:20.659Z,45.69
2019-01-11T07:41:50.486Z,49.89
2019-01-11T07:44:20.226Z,47.41
2019-01-11T07:46:50.028Z,53.57
2019-01-11T07:49:23.293Z,56.75
2019-01-11T07:51:51.597Z,57.31
2019-01-11T07:54:22.069Z,51.17
2019-01-11T07:56:53.052Z,53.31
2019-01-11T07:59:23.604Z,66.24
2019-01-11T08:01:53.656Z,79.40
2019-01-11T08:04:23.447Z,82.00
2019-01-11T08:06:53.252Z,82.53
2019-01-11T08:09:23.115Z,82.30
2019-01-11T08:11:53.131Z,82.27
2019-01-11T08:14:23.002Z,82.62
2019-01-11T08:16:52.930Z,82.64
2019-01-11T08:19:22.789Z,82.72
2019-01-11T08:21:52.655Z,82.94
2019-01-11T08:24:22.458Z,81.89
2019-01-11T08:26:54.566Z,82.55
2019-01-11T08:29:24.438Z,83.07
2019-01-11T08:31:54.150Z,82.01
2019-01-11T08:34:24.188Z,81.94
2019-01-11T08:36:53.975Z,81.43
2019-01-11T08:39:23.715Z,82.02
2019-01-11T08:41:53.597Z,81.96
2019-01-11T08:44:23.353Z,81.78
2019-01-11T08:46:53.313Z,80.98
2019-01-11T08:49:24.402Z,80.10
2019-01-11T08:51:54.295Z,82.04
2019-01-11T08:54:24.082Z,81.32
2019-01-11T08:56:53.892Z,80.70
2019-01-11T08:59:23.564Z,79.07
2019-01-11T09:01:54.618Z,77.46
2019-01-11T09:04:24.399Z,77.66
2019-01-11T09:06:54.209Z,78.90
2019-01-11T09:09:24.174Z,77.40
2019-01-11T09:11:54.166Z,78.04
2019-01-11T09:14:51.921Z,76.87
2019-01-11T09:17:21.951Z,77.59
2019-01-11T09:19:51.659Z,78.33
2019-01-11T09:22:21.607Z,75.95
2019-01-11T09:24:51.375Z,75.89
2019-01-11T09:27:21.235Z,77.60
2019-01-11T09:29:51.159Z,78.06
2019-01-11T09:32:21.016Z,76.77
2019-01-11T09:34:52.145Z,74.13
2019-01-11T09:37:21.900Z,74.32
2019-01-11T09:39:51.714Z,74.85
2019-01-11T09:42:21.576Z,73.91
2019-01-11T09:44:51.549Z,74.63
2019-01-11T09:47:21.500Z,75.82
2019-01-11T09:49:51.390Z,73.66
2019-01-11T09:52:21.231Z,73.93
2019-01-11T09:54:51.340Z,72.93
2019-01-11T09:57:21.226Z,72.44
2019-01-11T09:59:51.288Z,72.87
2019-01-11T10:02:35.570Z,73.47
2019-01-11T10:05:07.074Z,72.89
2019-01-11T10:07:37.188Z,72.59
2019-01-11T10:10:09.892Z,70.67
2019-01-11T10:12:39.885Z,71.85
2019-01-11T10:15:11.041Z,73.02
2019-01-11T10:17:40.997Z,71.73
2019-01-11T10:20:11.553Z,70.61
2019-01-11T10:22:41.593Z,72.10
2019-01-11T10:25:11.544Z,73.32
2019-01-11T10:27:41.297Z,72.60
2019-01-11T10:30:13.998Z,71.51
2019-01-11T10:32:44.465Z,71.98
2019-01-11T10:35:14.449Z,71.18
2019-01-11T10:37:44.283Z,71.40
2019-01-11T10:40:16.463Z,72.28
2019-01-11T10:42:46.516Z,72.60
2019-01-11T10:45:18.784Z,73.12
2019-01-11T10:47:48.768Z,71.99
2019-01-11T10:50:18.668Z,73.58
2019-01-11T10:52:48.536Z,71.05
2019-01-11T10:55:18.819Z,70.97
2019-01-11T10:57:49.434Z,72.41
2019-01-11T11:00:29.720Z,72.58
2019-01-11T11:03:00.027Z,70.13
2019-01-11T11:05:29.904Z,70.77
2019-01-11T11:07:59.664Z,68.89
2019-01-11T11:10:29.516Z,69.88
2019-01-11T11:12:59.271Z,69.46
2019-01-11T11:15:29.219Z,69.09
2019-01-11T11:17:59.087Z,69.74
2019-01-11T11:20:28.927Z,70.98
2019-01-11T11:22:58.762Z,69.96
2019-01-11T11:25:30.077Z,69.82
2019-01-11T11:27:59.904Z,71.47
2019-01-11T11:30:29.742Z,69.12
2019-01-11T11:33:00.463Z,70.69
2019-01-11T11:35:31.054Z,69.44
2019-01-11T11:38:00.782Z,70.30
2019-01-11T11:40:31.542Z,71.42
2019-01-11T11:43:04.133Z,69.41
2019-01-11T11:45:34.042Z,69.39
2019-01-11T11:48:03.945Z,69.28
2019-01-11T11:50:33.740Z,70.98
2019-01-11T11:53:03.738Z,70.98
2019-01-11T11:55:33.692Z,69.55
2019-01-11T11:58:03.490Z,71.29
2019-01-11T12:00:33.458Z,72.68
2019-01-11T12:03:03.231Z,72.91
2019-01-11T12:05:32.984Z,72.50
2019-01-11T12:08:03.997Z,73.51
2019-01-11T12:10:33.790Z,73.50
2019-01-11T12:13:03.616Z,73.26
2019-01-11T12:15:33.752Z,72.03
2019-01-11T12:18:03.667Z,71.91
2019-01-11T12:20:34.259Z,71.66
2019-01-11T12:23:04.254Z,70.87
2019-01-11T12:25:33.962Z,72.85
2019-01-11T12:28:03.631Z,70.85
2019-01-11T12:30:33.554Z,71.27
2019-01-11T12:33:03.422Z,71.59
2019-01-11T12:35:33.060Z,71.12
2019-01-11T12:38:04.229Z,69.11
2019-01-11T12:40:34.249Z,70.68
2019-01-11T12:43:04.037Z,71.26
2019-01-11T12:45:34.028Z,71.57
2019-01-11T12:48:04.096Z,72.46
2019-01-11T12:50:33.898Z,71.05
2019-01-11T12:53:06.349Z,69.30
2019-01-11T12:55:35.988Z,70.13
2019-01-11T12:58:05.919Z,71.05
2019-01-11T13:00:36.403Z,70.85
2019-01-11T13:03:06.145Z,69.03
2019-01-11T13:05:36.069Z,69.75
2019-01-11T13:08:06.016Z,71.96
2019-01-11T13:10:35.712Z,70.99
2019-01-11T13:13:05.413Z,71.07
2019-01-11T13:15:35.296Z,70.95
2019-01-11T13:18:05.143Z,71.25
2019-01-11T13:20:34.858Z,69.36
2019-01-11T13:23:06.523Z,71.63
2019-01-11T13:25:36.410Z,71.59
2019-01-11T13:28:06.126Z,70.25
2019-01-11T13:30:35.970Z,70.04
2019-01-11T13:33:05.968Z,68.25
2019-01-11T13:35:35.776Z,70.76
2019-01-11T13:38:06.936Z,69.86
2019-01-11T13:40:36.835Z,67.70
2019-01-11T13:43:06.747Z,70.68
2019-01-11T13:45:36.717Z,69.68
2019-01-11T13:48:07.766Z,69.74
2019-01-11T13:50:42.141Z,68.59
2019-01-11T13:53:20.070Z,69.14
2019-01-11T13:55:49.962Z,69.94
2019-01-11T13:58:19.764Z,70.55
2019-01-11T14:00:49.720Z,71.11
2019-01-11T14:03:19.509Z,71.16
2019-01-11T14:05:49.404Z,71.54
2019-01-11T14:08:20.480Z,70.94
2019-01-11T14:10:50.295Z,70.55
2019-01-11T14:13:20.097Z,71.09
2019-01-11T14:15:50.177Z,72.48
2019-01-11T14:18:20.038Z,72.72
2019-01-11T14:20:49.840Z,73.74
2019-01-11T14:23:19.790Z,73.30
2019-01-11T14:25:49.565Z,73.99
2019-01-11T14:28:19.385Z,74.16
2019-01-11T14:30:49.355Z,75.34
2019-01-11T14:33:19.201Z,74.44
2019-01-11T14:35:49.062Z,75.16
2019-01-11T14:38:19.005Z,76.00
2019-01-11T14:40:48.673Z,75.25
2019-01-11T14:43:18.478Z,74.97
2019-01-11T14:45:49.628Z,74.79
2019-01-11T14:48:19.537Z,74.68
2019-01-11T14:50:49.333Z,73.90
2019-01-11T14:53:18.996Z,74.06
2019-01-11T14:55:48.667Z,73.74
2019-01-11T14:58:19.322Z,74.37
2019-01-11T15:00:49.290Z,74.99
2019-01-11T15:03:19.036Z,74.76
2019-01-11T15:05:48.964Z,75.34
2019-01-11T15:08:18.865Z,75.16
2019-01-11T15:10:48.796Z,75.07
2019-01-11T15:13:18.711Z,75.50
2019-01-11T15:15:48.403Z,75.75
2019-01-11T15:18:18.318Z,76.49
2019-01-11T15:20:48.391Z,75.73
2019-01-11T15:23:18.206Z,74.79
2019-01-11T15:25:48.071Z,73.39
2019-01-11T15:28:17.975Z,73.12
2019-01-11T15:30:47.812Z,71.66
2019-01-11T15:33:17.573Z,72.53
2019-01-11T15:35:48.586Z,72.58
2019-01-11T15:38:18.612Z,73.48
2019-01-11T15:40:48.516Z,73.27
2019-01-11T15:43:18.390Z,72.84
2019-01-11T15:45:48.216Z,72.27
2019-01-11T15:48:20.553Z,71.77
2019-01-11T15:50:57.999Z,71.76
2019-01-11T15:53:35.655Z,70.19
2019-01-11T15:56:06.850Z,71.56
2019-01-11T15:58:36.649Z,70.39
2019-01-11T16:01:07.124Z,70.00
2019-01-11T16:03:37.014Z,69.31
2019-01-11T16:06:31.893Z,69.49
2019-01-11T16:10:02.046Z,68.63
2019-01-11T16:12:44.673Z,67.70
2019-01-11T16:15:46.895Z,68.32
2019-01-11T16:18:26.219Z,67.57
2019-01-11T16:20:56.080Z,68.69
2019-01-11T16:23:25.891Z,69.15
2019-01-11T16:25:56.959Z,69.20
2019-01-11T16:28:26.675Z,69.34
2019-01-11T16:30:56.395Z,70.47
2019-01-11T16:33:26.261Z,71.15
2019-01-11T16:35:56.061Z,69.90
2019-01-11T16:38:25.928Z,69.29
2019-01-11T16:40:55.728Z,70.02
2019-01-11T16:43:25.819Z,70.77
2019-01-11T16:45:55.669Z,70.93
2019-01-11T16:48:25.479Z,71.42
2019-01-11T16:50:55.499Z,71.62
2019-01-11T16:53:25.702Z,71.31
2019-01-11T16:55:55.687Z,71.71
2019-01-11T16:58:25.367Z,71.28
2019-01-11T17:00:55.281Z,70.99
2019-01-11T17:03:25.217Z,70.73
2019-01-11T17:05:55.068Z,70.97
2019-01-11T17:08:24.805Z,70.53
2019-01-11T17:10:54.693Z,70.35
2019-01-11T17:13:24.493Z,72.69
2019-01-11T17:15:54.374Z,72.01
2019-01-11T17:18:24.260Z,71.46
2019-01-11T17:20:54.451Z,71.53
2019-01-11T17:23:24.212Z,71.17
2019-01-11T17:25:54.142Z,70.36
2019-01-11T17:28:24.170Z,69.92
2019-01-11T17:30:54.407Z,69.52
2019-01-11T17:33:24.318Z,69.04
2019-01-11T17:35:53.953Z,70.10
2019-01-11T17:38:23.709Z,70.16
2019-01-11T17:40:53.800Z,71.70
2019-01-11T17:43:23.544Z,71.14
2019-01-11T17:45:53.481Z,71.57
2019-01-11T17:48:23.375Z,71.62
2019-01-11T17:50:53.094Z,70.30
2019-01-11T17:53:22.852Z,70.62
2019-01-11T17:55:52.633Z,69.91
2019-01-11T17:58:22.602Z,70.43
2019-01-11T18:00:54.538Z,70.20
2019-01-11T18:03:25.366Z,70.05
2019-01-11T18:05:55.419Z,70.35
2019-01-11T18:08:25.606Z,70.52
2019-01-11T18:10:55.303Z,71.37
2019-01-11T18:13:25.386Z,71.91
2019-01-11T18:15:55.320Z,72.24
2019-01-11T18:18:25.158Z,71.28
2019-01-11T18:20:56.259Z,70.03
2019-01-11T18:23:25.939Z,69.39
2019-01-11T18:25:55.882Z,69.89
2019-01-11T18:28:26.924Z,69.72
2019-01-11T18:30:56.927Z,70.25
2019-01-11T18:33:27.025Z,69.25
2019-01-11T18:35:58.280Z,69.76
2019-01-11T18:38:28.108Z,70.57
2019-01-11T18:40:57.919Z,70.46
2019-01-11T18:43:28.196Z,70.81
2019-01-11T18:45:57.849Z,71.06
2019-01-11T18:48:27.973Z,71.56
2019-01-11T18:50:58.068Z,72.10
2019-01-11T18:53:27.798Z,72.42
2019-01-11T18:55:57.748Z,73.14
2019-01-11T18:58:27.648Z,73.56
2019-01-11T19:00:57.481Z,73.35
2019-01-11T19:03:27.295Z,72.50
2019-01-11T19:05:57.308Z,72.01
2019-01-11T19:08:27.126Z,70.95
2019-01-11T19:10:57.269Z,70.72
2019-01-11T19:13:27.052Z,70.08
2019-01-11T19:15:56.752Z,70.40
2019-01-11T19:18:27.731Z,70.03
2019-01-11T19:20:57.693Z,71.57
2019-01-11T19:23:27.449Z,72.76
2019-01-11T19:25:57.347Z,73.18
2019-01-11T19:28:28.719Z,74.88
2019-01-11T19:30:58.635Z,75.69
2019-01-11T19:33:28.463Z,74.19
2019-01-11T19:35:58.572Z,73.98
2019-01-11T19:38:28.552Z,73.87
2019-01-11T19:40:58.499Z,74.03
2019-01-11T19:43:28.230Z,74.84
2019-01-11T19:45:58.000Z,75.44
2019-01-11T19:48:27.934Z,75.09
2019-01-11T19:50:57.784Z,76.02
2019-01-11T19:53:27.917Z,76.60
2019-01-11T19:55:58.928Z,77.00
2019-01-11T19:58:30.173Z,77.10
2019-01-11T20:01:00.012Z,77.08
2019-01-11T20:03:29.879Z,76.08
2019-01-11T20:05:59.629Z,76.78
2019-01-11T20:08:29.410Z,77.07
2019-01-11T20:10:59.577Z,76.95
2019-01-11T20:13:29.466Z,77.20
2019-01-11T20:16:00.077Z,77.71
2019-01-11T20:18:32.344Z,79.69
2019-01-11T20:21:02.260Z,80.47
2019-01-11T20:23:36.599Z,80.96
2019-01-11T20:26:04.985Z,80.74
2019-01-11T20:28:34.775Z,80.33
2019-01-11T20:31:05.032Z,78.23
2019-01-11T20:33:36.191Z,77.96
2019-01-11T20:36:06.405Z,77.44
2019-01-11T20:38:36.281Z,76.77
2019-01-11T20:41:06.281Z,76.67
2019-01-11T20:43:37.510Z,77.46
2019-01-11T20:46:07.276Z,77.58
2019-01-11T20:48:37.194Z,77.65
2019-01-11T20:51:07.121Z,76.61
2019-01-11T20:53:41.621Z,76.44
2019-01-11T20:56:08.527Z,76.36
2019-01-11T20:58:38.292Z,75.79
2019-01-11T21:01:08.390Z,75.44
2019-01-11T21:03:38.261Z,75.10
2019-01-11T21:06:08.053Z,75.06
2019-01-11T21:08:37.973Z,74.27
2019-01-11T21:11:07.948Z,74.79
2019-01-11T21:13:37.867Z,74.11
2019-01-11T21:16:07.580Z,74.12
2019-01-11T21:18:37.797Z,74.80
2019-01-11T21:21:08.052Z,75.24
2019-01-11T21:23:38.056Z,77.01
2019-01-11T21:26:08.152Z,75.83
2019-01-11T21:28:37.913Z,75.98
2019-01-11T21:31:07.707Z,76.60
2019-01-11T21:33:38.815Z,77.21
2019-01-11T21:36:08.465Z,77.39
2019-01-11T21:38:38.407Z,77.52
2019-01-11T21:41:09.771Z,76.74
2019-01-11T21:43:39.670Z,76.74
2019-01-11T21:46:09.658Z,77.32
2019-01-11T21:48:39.759Z,75.52
2019-01-11T21:51:09.513Z,74.89
2019-01-11T21:53:39.425Z,74.88
2019-01-11T21:56:09.306Z,75.86
2019-01-11T21:58:39.267Z,72.60
2019-01-11T22:01:09.078Z,73.93
2019-01-11T22:03:38.914Z,72.08
2019-01-11T22:06:08.910Z,74.09
2019-01-11T22:08:38.853Z,73.84
2019-01-11T22:11:08.548Z,72.67
2019-01-11T22:13:38.516Z,73.53
2019-01-11T22:16:09.854Z,73.79
2019-01-11T22:18:39.617Z,74.10
2019-01-11T22:21:09.601Z,74.48
2019-01-11T22:23:39.961Z,74.16
2019-01-11T22:26:09.892Z,73.19
2019-01-11T22:28:39.774Z,73.86
2019-01-11T22:31:09.621Z,74.00
2019-01-11T22:33:39.742Z,73.93
2019-01-11T22:36:09.506Z,74.16
2019-01-11T22:38:39.434Z,73.98
2019-01-11T22:41:09.546Z,73.00
2019-01-11T22:43:39.556Z,73.39
2019-01-11T22:46:09.438Z,73.50
2019-01-11T22:48:39.384Z,74.21
2019-01-11T22:51:09.210Z,72.82
2019-01-11T22:53:39.218Z,71.86
2019-01-11T22:56:09.155Z,72.04
2019-01-11T22:58:39.311Z,72.21
2019-01-11T23:01:39.046Z,72.21
2019-01-11T23:04:08.780Z,71.11
2019-01-11T23:07:02.375Z,72.56
2019-01-11T23:09:57.109Z,72.68
2019-01-11T23:12:41.268Z,72.49
2019-01-11T23:15:21.326Z,72.52
2019-01-11T23:17:57.933Z,72.94
2019-01-11T23:20:27.779Z,73.45
2019-01-11T23:22:57.688Z,72.91
2019-01-11T23:25:27.918Z,72.01
2019-01-11T23:27:58.014Z,72.06
2019-01-11T23:30:28.052Z,71.79
2019-01-11T23:32:58.892Z,72.69
2019-01-11T23:35:29.048Z,71.84
2019-01-11T23:37:58.927Z,72.49
2019-01-11T23:40:29.461Z,72.34
2019-01-11T23:42:59.322Z,72.90
2019-01-11T23:45:29.239Z,72.88
2019-01-11T23:47:59.122Z,73.26
2019-01-11T23:50:29.176Z,73.19
2019-01-11T23:52:58.882Z,72.87
2019-01-11T23:55:29.058Z,71.40
2019-01-11T23:57:58.890Z,71.20
